sensor_id;sensor_type;location;lat;lon;timestamp;temperature;humidity
28069;DHT22;15382;47.578;8.086;2023-03-01T00:01:53;-0.20;99.90
28069;DHT22;15382;47.578;8.086;2023-03-01T00:11:54;-0.10;99.90
28069;DHT22;15382;47.578;8.086;2023-03-01T00:21:56;-0.10;99.90
28069;DHT22;15382;47.578;8.086;2023-03-01T00:31:57;0.00;99.90
28069;DHT22;15382;47.578;8.086;2023-03-01T00:41:57;0.20;99.90
28069;DHT22;15382;47.578;8.086;2023-03-01T00:51:58;0.20;99.90
28069;DHT22;15382;47.578;8.086;2023-03-01T01:01:59;0.30;99.90
28069;DHT22;15382;47.578;8.086;2023-03-01T01:12:00;0.40;99.90
28069;DHT22;15382;47.578;8.086;2023-03-01T01:22:00;0.50;99.90
28069;DHT22;15382;47.578;8.086;2023-03-01T01:32:01;0.50;99.90
28069;DHT22;15382;47.578;8.086;2023-03-01T01:42:02;0.60;99.90
28069;DHT22;15382;47.578;8.086;2023-03-01T01:52:22;0.70;99.90
28069;DHT22;15382;47.578;8.086;2023-03-01T02:02:25;0.80;99.90
28069;DHT22;15382;47.578;8.086;2023-03-01T02:12:26;1.10;99.90
28069;DHT22;15382;47.578;8.086;2023-03-01T02:22:31;1.10;99.90
28069;DHT22;15382;47.578;8.086;2023-03-01T02:32:34;1.10;99.90
28069;DHT22;15382;47.578;8.086;2023-03-01T02:42:50;1.20;99.90
28069;DHT22;15382;47.578;8.086;2023-03-01T02:53:13;1.20;99.90
28069;DHT22;15382;47.578;8.086;2023-03-01T03:03:19;1.20;99.90
28069;DHT22;15382;47.578;8.086;2023-03-01T03:13:21;1.20;99.90
28069;DHT22;15382;47.578;8.086;2023-03-01T03:23:22;1.20;99.90
28069;DHT22;15382;47.578;8.086;2023-03-01T03:33:24;1.20;99.90
28069;DHT22;15382;47.578;8.086;2023-03-01T03:43:25;1.20;99.90
28069;DHT22;15382;47.578;8.086;2023-03-01T03:53:28;1.20;99.90
28069;DHT22;15382;47.578;8.086;2023-03-01T04:03:31;1.30;99.90
28069;DHT22;15382;47.578;8.086;2023-03-01T04:13:32;1.20;99.90
28069;DHT22;15382;47.578;8.086;2023-03-01T04:23:33;1.20;99.90
28069;DHT22;15382;47.578;8.086;2023-03-01T04:33:33;1.30;99.90
28069;DHT22;15382;47.578;8.086;2023-03-01T04:43:35;1.30;99.90
28069;DHT22;15382;47.578;8.086;2023-03-01T04:53:35;1.30;99.90
28069;DHT22;15382;47.578;8.086;2023-03-01T05:03:39;1.30;99.90
28069;DHT22;15382;47.578;8.086;2023-03-01T05:13:40;1.40;99.90
28069;DHT22;15382;47.578;8.086;2023-03-01T05:23:41;1.40;99.90
28069;DHT22;15382;47.578;8.086;2023-03-01T05:33:42;1.40;99.90
28069;DHT22;15382;47.578;8.086;2023-03-01T05:43:44;1.40;99.90
28069;DHT22;15382;47.578;8.086;2023-03-01T05:53:45;1.40;99.90
28069;DHT22;15382;47.578;8.086;2023-03-01T06:03:46;1.30;99.90
28069;DHT22;15382;47.578;8.086;2023-03-01T06:13:46;1.40;99.90
28069;DHT22;15382;47.578;8.086;2023-03-01T06:23:47;1.30;99.90
28069;DHT22;15382;47.578;8.086;2023-03-01T06:33:48;1.40;99.90
28069;DHT22;15382;47.578;8.086;2023-03-01T06:43:49;1.20;99.90
28069;DHT22;15382;47.578;8.086;2023-03-01T06:53:49;1.30;99.90
28069;DHT22;15382;47.578;8.086;2023-03-01T07:03:50;1.20;99.90
28069;DHT22;15382;47.578;8.086;2023-03-01T07:13:51;1.20;99.90
28069;DHT22;15382;47.578;8.086;2023-03-01T07:23:52;1.30;99.90
28069;DHT22;15382;47.578;8.086;2023-03-01T07:33:53;1.40;99.90
28069;DHT22;15382;47.578;8.086;2023-03-01T07:43:54;1.40;99.90
28069;DHT22;15382;47.578;8.086;2023-03-01T07:53:55;1.40;99.90
28069;DHT22;15382;47.578;8.086;2023-03-01T08:03:56;1.40;99.90
28069;DHT22;15382;47.578;8.086;2023-03-01T08:13:56;1.50;99.90
28069;DHT22;15382;47.578;8.086;2023-03-01T08:23:57;1.40;99.90
28069;DHT22;15382;47.578;8.086;2023-03-01T08:34:01;1.50;99.90
28069;DHT22;15382;47.578;8.086;2023-03-01T08:44:02;1.50;99.90
28069;DHT22;15382;47.578;8.086;2023-03-01T08:54:09;1.50;99.90
28069;DHT22;15382;47.578;8.086;2023-03-01T09:04:12;1.50;99.90
28069;DHT22;15382;47.578;8.086;2023-03-01T09:14:14;1.50;99.90
28069;DHT22;15382;47.578;8.086;2023-03-01T09:24:14;1.50;99.90
28069;DHT22;15382;47.578;8.086;2023-03-01T09:34:15;1.50;99.90
28069;DHT22;15382;47.578;8.086;2023-03-01T09:54:46;1.60;99.90
28069;DHT22;15382;47.578;8.086;2023-03-01T10:04:49;1.60;99.90
28069;DHT22;15382;47.578;8.086;2023-03-01T10:15:33;1.60;99.90
28069;DHT22;15382;47.578;8.086;2023-03-01T10:25:46;1.70;99.90
28069;DHT22;15382;47.578;8.086;2023-03-01T10:35:47;1.70;99.90
28069;DHT22;15382;47.578;8.086;2023-03-01T10:45:49;1.80;99.90
28069;DHT22;15382;47.578;8.086;2023-03-01T10:55:57;1.90;99.90
28069;DHT22;15382;47.578;8.086;2023-03-01T11:16:12;1.90;99.90
28069;DHT22;15382;47.578;8.086;2023-03-01T11:26:13;2.20;99.90
28069;DHT22;15382;47.578;8.086;2023-03-01T11:57:13;2.20;99.90
28069;DHT22;15382;47.578;8.086;2023-03-01T12:37:54;2.50;99.90
28069;DHT22;15382;47.578;8.086;2023-03-01T13:19:35;3.00;99.90
28069;DHT22;15382;47.578;8.086;2023-03-01T13:29:54;3.10;99.90
28069;DHT22;15382;47.578;8.086;2023-03-01T13:39:58;3.00;99.90
28069;DHT22;15382;47.578;8.086;2023-03-01T13:50:01;3.10;99.90
28069;DHT22;15382;47.578;8.086;2023-03-01T14:00:03;3.10;99.90
28069;DHT22;15382;47.578;8.086;2023-03-01T14:10:06;3.20;99.90
28069;DHT22;15382;47.578;8.086;2023-03-01T14:20:19;3.00;99.90
28069;DHT22;15382;47.578;8.086;2023-03-01T14:30:22;3.20;99.90
28069;DHT22;15382;47.578;8.086;2023-03-01T14:40:34;3.20;99.90
28069;DHT22;15382;47.578;8.086;2023-03-01T14:50:41;3.00;99.90
28069;DHT22;15382;47.578;8.086;2023-03-01T15:11:05;3.10;99.90
28069;DHT22;15382;47.578;8.086;2023-03-01T15:21:37;3.10;99.90
28069;DHT22;15382;47.578;8.086;2023-03-01T15:31:38;3.30;99.90
28069;DHT22;15382;47.578;8.086;2023-03-01T15:41:48;3.20;99.90
28069;DHT22;15382;47.578;8.086;2023-03-01T15:51:49;3.40;99.90
28069;DHT22;15382;47.578;8.086;2023-03-01T16:01:50;3.10;99.90
28069;DHT22;15382;47.578;8.086;2023-03-01T16:11:52;3.20;99.90
28069;DHT22;15382;47.578;8.086;2023-03-01T16:21:53;3.10;99.90
28069;DHT22;15382;47.578;8.086;2023-03-01T16:31:54;2.90;99.90
28069;DHT22;15382;47.578;8.086;2023-03-01T16:41:55;2.90;99.90
28069;DHT22;15382;47.578;8.086;2023-03-01T16:51:56;2.70;99.90
28069;DHT22;15382;47.578;8.086;2023-03-01T17:01:56;2.50;99.90
28069;DHT22;15382;47.578;8.086;2023-03-01T17:11:57;2.30;99.90
28069;DHT22;15382;47.578;8.086;2023-03-01T17:21:58;2.10;99.90
28069;DHT22;15382;47.578;8.086;2023-03-01T17:32:00;1.60;99.90
28069;DHT22;15382;47.578;8.086;2023-03-01T17:42:03;1.30;99.90
28069;DHT22;15382;47.578;8.086;2023-03-01T17:52:04;1.20;99.90
28069;DHT22;15382;47.578;8.086;2023-03-01T18:02:05;1.10;99.90
28069;DHT22;15382;47.578;8.086;2023-03-01T18:12:06;1.00;99.90
28069;DHT22;15382;47.578;8.086;2023-03-01T18:22:07;1.10;99.90
28069;DHT22;15382;47.578;8.086;2023-03-01T18:32:08;1.20;99.90
28069;DHT22;15382;47.578;8.086;2023-03-01T18:42:09;1.40;99.90
28069;DHT22;15382;47.578;8.086;2023-03-01T18:52:10;1.50;99.90
28069;DHT22;15382;47.578;8.086;2023-03-01T19:02:11;1.50;99.90
28069;DHT22;15382;47.578;8.086;2023-03-01T19:12:14;1.50;99.90
28069;DHT22;15382;47.578;8.086;2023-03-01T19:22:15;1.50;99.90
28069;DHT22;15382;47.578;8.086;2023-03-01T19:32:16;1.60;99.90
28069;DHT22;15382;47.578;8.086;2023-03-01T19:42:17;1.60;99.90
28069;DHT22;15382;47.578;8.086;2023-03-01T19:52:18;1.60;99.90
28069;DHT22;15382;47.578;8.086;2023-03-01T20:02:18;1.60;99.90
28069;DHT22;15382;47.578;8.086;2023-03-01T20:12:19;1.60;99.90
28069;DHT22;15382;47.578;8.086;2023-03-01T20:22:20;1.70;99.90
28069;DHT22;15382;47.578;8.086;2023-03-01T20:32:21;1.70;99.90
28069;DHT22;15382;47.578;8.086;2023-03-01T20:42:22;1.60;99.90
28069;DHT22;15382;47.578;8.086;2023-03-01T20:52:23;1.60;99.90
28069;DHT22;15382;47.578;8.086;2023-03-01T21:02:23;1.60;99.90
28069;DHT22;15382;47.578;8.086;2023-03-01T21:12:24;1.50;99.90
28069;DHT22;15382;47.578;8.086;2023-03-01T21:22:25;1.40;99.90
28069;DHT22;15382;47.578;8.086;2023-03-01T21:32:26;1.30;99.90
28069;DHT22;15382;47.578;8.086;2023-03-01T21:42:27;1.50;99.90
28069;DHT22;15382;47.578;8.086;2023-03-01T21:52:27;1.50;99.90
28069;DHT22;15382;47.578;8.086;2023-03-01T22:02:28;1.50;99.90
28069;DHT22;15382;47.578;8.086;2023-03-01T22:12:31;1.50;99.90
28069;DHT22;15382;47.578;8.086;2023-03-01T22:22:32;1.50;99.90
28069;DHT22;15382;47.578;8.086;2023-03-01T22:32:33;1.70;99.90
28069;DHT22;15382;47.578;8.086;2023-03-01T22:42:34;1.70;99.90
28069;DHT22;15382;47.578;8.086;2023-03-01T22:52:34;1.80;99.90
28069;DHT22;15382;47.578;8.086;2023-03-01T23:02:35;1.80;99.90
28069;DHT22;15382;47.578;8.086;2023-03-01T23:12:37;1.70;99.90
28069;DHT22;15382;47.578;8.086;2023-03-01T23:22:38;1.70;99.90
28069;DHT22;15382;47.578;8.086;2023-03-01T23:32:39;1.70;99.90
28069;DHT22;15382;47.578;8.086;2023-03-01T23:42:40;1.70;99.90
28069;DHT22;15382;47.578;8.086;2023-03-01T23:52:41;1.70;99.90
